Time;durP1;ratioP1;P1;durP2;ratioP2;P2;SDS_P1;SDS_P2;PMS_P1;PMS_P2;Temp;Humidity;BMP_temperature;BMP_pressure;BME280_temperature;BME280_humidity;BME280_pressure;Samples;Min_cycle;Max_cycle;Signal;HPM_P1;HPM_P2
2022/03/01 00:00:16;;;;;;;5.57;5.07;;;-7.70;99.90;;;;;;5147355;27;20551;-57
2022/03/01 00:02:56;;;;;;;5.50;5.00;;;-7.70;99.90;;;;;;5106432;27;20670;-57
2022/03/01 00:05:36;;;;;;;5.70;5.15;;;-7.60;99.90;;;;;;5085988;27;20549;-57
2022/03/01 00:08:16;;;;;;;5.22;4.75;;;-7.50;99.90;;;;;;5105886;27;20557;-57
2022/03/01 00:10:55;;;;;;;4.93;4.53;;;-7.50;99.90;;;;;;5126665;27;20927;-57
2022/03/01 00:13:36;;;;;;;5.22;4.82;;;-7.60;99.90;;;;;;5085857;28;20660;-57
2022/03/01 00:16:17;;;;;;;5.40;4.93;;;-7.70;99.90;;;;;;5085923;27;20561;-57
2022/03/01 00:18:57;;;;;;;5.68;5.15;;;-7.70;99.90;;;;;;5147205;27;21169;-57
2022/03/01 00:21:36;;;;;;;6.00;5.25;;;-7.70;99.90;;;;;;5086306;27;20671;-57
2022/03/01 00:24:18;;;;;;;5.13;4.72;;;-7.80;99.90;;;;;;5105934;27;21056;-57
2022/03/01 00:26:58;;;;;;;5.35;4.85;;;-7.80;99.90;;;;;;5085527;28;21041;-57
2022/03/01 00:29:37;;;;;;;5.25;4.75;;;-7.80;99.90;;;;;;5085815;28;20547;-57
2022/03/01 00:32:17;;;;;;;5.35;4.85;;;-7.80;99.90;;;;;;5085891;28;20667;-57
2022/03/01 00:34:57;;;;;;;5.38;4.88;;;-7.80;99.90;;;;;;5106016;27;20564;-57
2022/03/01 00:37:37;;;;;;;6.50;5.90;;;-7.80;99.90;;;;;;5159137;27;20586;-57
2022/03/01 00:40:17;;;;;;;6.05;5.47;;;-7.80;99.90;;;;;;5085952;27;21040;-57
2022/03/01 00:42:57;;;;;;;5.47;5.07;;;-7.70;99.90;;;;;;5086450;28;20982;-57
2022/03/01 00:45:37;;;;;;;5.75;5.15;;;-7.70;99.90;;;;;;5085692;28;20675;-57
2022/03/01 00:48:16;;;;;;;4.72;4.32;;;-7.50;99.90;;;;;;5085589;27;20559;-57
2022/03/01 00:50:56;;;;;;;5.47;4.97;;;-7.20;99.90;;;;;;5106172;27;20681;-57
2022/03/01 00:53:36;;;;;;;5.35;4.85;;;-6.90;99.90;;;;;;5147245;27;21070;-57
2022/03/01 00:56:16;;;;;;;8.10;4.57;;;-6.60;99.90;;;;;;5147325;27;21078;-58
2022/03/01 00:58:55;;;;;;;5.35;4.85;;;-6.30;99.90;;;;;;5106218;27;20538;-57
2022/03/01 01:01:36;;;;;;;5.05;4.65;;;-6.00;99.90;;;;;;5085812;28;20668;-57
2022/03/01 01:04:15;;;;;;;5.32;4.82;;;-5.80;99.90;;;;;;5042247;27;21163;-57
2022/03/01 01:06:55;;;;;;;4.65;4.25;;;-5.60;99.90;;;;;;5085604;28;20754;-57
2022/03/01 01:09:35;;;;;;;5.53;5.03;;;-5.60;99.90;;;;;;5085812;27;21014;-57
2022/03/01 01:12:15;;;;;;;4.82;4.32;;;-5.60;99.90;;;;;;5085583;27;20561;-57
2022/03/01 01:14:54;;;;;;;4.63;3.75;;;-5.50;99.90;;;;;;5106311;27;20538;-57
2022/03/01 01:17:35;;;;;;;5.25;4.80;;;-5.40;99.90;;;;;;5085307;27;20559;-57
2022/03/01 01:20:16;;;;;;;5.15;4.53;;;-5.50;99.90;;;;;;5085776;27;20620;-57
2022/03/01 01:22:56;;;;;;;5.22;4.50;;;-5.60;99.90;;;;;;5086092;27;20707;-57
2022/03/01 01:25:35;;;;;;;5.32;4.93;;;-5.70;99.90;;;;;;5166584;27;20540;-57
2022/03/01 01:28:15;;;;;;;6.72;5.43;;;-6.00;99.90;;;;;;5083207;27;20577;-57
2022/03/01 01:30:55;;;;;;;5.32;4.85;;;-6.30;99.90;;;;;;5146626;27;20550;-57
2022/03/01 01:33:35;;;;;;;5.35;4.78;;;-6.60;99.90;;;;;;5147430;27;20542;-57
2022/03/01 01:36:15;;;;;;;5.60;5.10;;;-6.80;99.90;;;;;;5106411;27;20646;-57
2022/03/01 01:38:55;;;;;;;6.05;5.45;;;-7.00;99.90;;;;;;5147012;27;20535;-57
2022/03/01 01:41:34;;;;;;;5.32;4.93;;;-7.20;99.90;;;;;;5085665;28;20703;-57
2022/03/01 01:44:14;;;;;;;5.80;5.30;;;-7.30;99.90;;;;;;5126801;27;20548;-57
2022/03/01 01:46:54;;;;;;;5.55;5.05;;;-7.40;99.90;;;;;;5085606;27;21084;-57
2022/03/01 01:49:34;;;;;;;5.25;4.75;;;-7.20;99.90;;;;;;5085916;28;20668;-57
2022/03/01 01:52:14;;;;;;;5.25;4.75;;;-7.10;99.90;;;;;;5106113;27;20553;-57
2022/03/01 01:54:54;;;;;;;5.85;5.30;;;-7.20;99.90;;;;;;5106340;27;20538;-57
2022/03/01 01:57:33;;;;;;;5.90;5.35;;;-7.40;99.90;;;;;;5106389;27;20550;-57
2022/03/01 02:00:15;;;;;;;6.53;6.00;;;-7.40;99.90;;;;;;5086572;27;20551;-57
2022/03/01 02:02:56;;;;;;;6.70;6.03;;;-7.40;99.90;;;;;;5106146;27;20677;-57
2022/03/01 02:05:38;;;;;;;6.20;5.65;;;-7.30;99.90;;;;;;5085944;28;20572;-57
2022/03/01 02:08:17;;;;;;;5.82;5.38;;;-7.30;99.90;;;;;;5085804;28;21065;-57
2022/03/01 02:10:57;;;;;;;7.38;5.57;;;-7.30;99.90;;;;;;5106796;27;20690;-57
2022/03/01 02:13:37;;;;;;;5.57;4.97;;;-7.30;99.90;;;;;;5085907;27;20573;-57
2022/03/01 02:16:17;;;;;;;5.75;5.25;;;-7.30;99.90;;;;;;5106150;27;20537;-57
2022/03/01 02:18:57;;;;;;;6.10;5.60;;;-7.40;99.90;;;;;;5106712;27;20669;-57
2022/03/01 02:21:37;;;;;;;6.57;5.97;;;-7.50;99.90;;;;;;5147292;27;21008;-57
2022/03/01 02:24:17;;;;;;;7.57;5.32;;;-7.60;99.90;;;;;;5126757;27;20543;-57
2022/03/01 02:26:57;;;;;;;5.57;5.18;;;-7.60;99.90;;;;;;5085603;28;20672;-57
2022/03/01 02:29:36;;;;;;;5.90;5.30;;;-7.60;99.90;;;;;;5086063;28;20672;-57
2022/03/01 02:32:16;;;;;;;6.80;5.30;;;-7.60;99.90;;;;;;5086548;27;20588;-57
2022/03/01 02:34:56;;;;;;;6.22;5.70;;;-7.50;99.90;;;;;;5146265;27;21050;-57
2022/03/01 02:37:36;;;;;;;6.63;5.70;;;-7.40;99.90;;;;;;5085439;27;20555;-57
2022/03/01 02:40:16;;;;;;;6.65;5.82;;;-7.50;99.90;;;;;;5106435;27;20599;-55
2022/03/01 02:42:55;;;;;;;6.30;5.70;;;-7.50;99.90;;;;;;5126728;27;20676;-57
2022/03/01 02:45:35;;;;;;;6.50;5.90;;;-7.50;99.90;;;;;;5086136;27;20539;-57
2022/03/01 02:48:15;;;;;;;6.30;5.70;;;-7.50;99.90;;;;;;5105847;27;20709;-57
2022/03/01 02:50:55;;;;;;;6.20;5.70;;;-7.60;99.90;;;;;;5147870;27;21209;-57
2022/03/01 02:53:36;;;;;;;6.03;5.45;;;-7.70;99.90;;;;;;5126710;27;20544;-58
2022/03/01 02:56:16;;;;;;;6.13;5.63;;;-7.70;99.90;;;;;;5084168;27;20695;-57
2022/03/01 02:58:58;;;;;;;5.25;4.85;;;-7.70;99.90;;;;;;5118339;27;20585;-56
2022/03/01 03:01:37;;;;;;;5.68;5.18;;;-7.80;99.90;;;;;;5085971;27;20557;-57
2022/03/01 03:04:17;;;;;;;7.07;5.80;;;-7.90;99.90;;;;;;5085703;28;20552;-57
2022/03/01 03:06:57;;;;;;;5.60;5.15;;;-8.00;99.90;;;;;;5124724;27;20916;-57
2022/03/01 03:09:37;;;;;;;6.13;5.53;;;-8.00;99.90;;;;;;5105964;27;21134;-57
2022/03/01 03:12:18;;;;;;;6.78;5.93;;;-8.10;99.90;;;;;;5069152;27;20591;-57
2022/03/01 03:14:58;;;;;;;6.93;6.25;;;-8.00;99.90;;;;;;5080594;28;20721;-57
2022/03/01 03:17:38;;;;;;;7.43;5.95;;;-7.90;99.90;;;;;;5074264;27;20967;-57
2022/03/01 03:20:18;;;;;;;6.80;6.00;;;-7.70;99.90;;;;;;5085339;28;20696;-57
2022/03/01 03:22:57;;;;;;;6.95;6.22;;;-7.70;99.90;;;;;;5147181;27;20681;-57
2022/03/01 03:25:38;;;;;;;5.88;5.38;;;-7.70;99.90;;;;;;5120176;27;20551;-58
2022/03/01 03:28:17;;;;;;;5.90;5.40;;;-7.50;99.90;;;;;;5104506;27;21074;-57
2022/03/01 03:30:57;;;;;;;7.20;5.95;;;-7.50;99.90;;;;;;5126019;27;20917;-57
2022/03/01 03:33:37;;;;;;;7.50;6.78;;;-7.60;99.90;;;;;;5126578;27;20544;-58
2022/03/01 03:36:17;;;;;;;9.02;8.13;;;-7.70;99.90;;;;;;5100077;27;20563;-57
2022/03/01 03:38:56;;;;;;;7.70;6.93;;;-7.90;99.90;;;;;;5149193;27;20554;-57
2022/03/01 03:41:37;;;;;;;8.68;7.80;;;-8.10;99.90;;;;;;5085305;27;20597;-57
2022/03/01 03:44:16;;;;;;;7.65;6.95;;;-8.20;99.90;;;;;;5126489;27;20548;-57
2022/03/01 03:46:56;;;;;;;6.68;6.07;;;-8.20;99.90;;;;;;5100646;27;20869;-57
2022/03/01 03:49:36;;;;;;;7.22;6.07;;;-8.30;99.90;;;;;;5085757;28;20671;-57
2022/03/01 03:52:15;;;;;;;8.02;6.18;;;-8.40;99.90;;;;;;5121280;27;20556;-57
2022/03/01 03:54:55;;;;;;;6.00;4.90;;;-8.40;99.90;;;;;;5081115;28;20693;-57
2022/03/01 03:57:36;;;;;;;6.20;5.60;;;-8.40;99.90;;;;;;5085812;27;20555;-57
2022/03/01 04:00:17;;;;;;;5.53;5.13;;;-8.20;99.90;;;;;;5103851;27;20545;-57
2022/03/01 04:02:56;;;;;;;6.00;5.50;;;-7.90;99.90;;;;;;5126912;27;20540;-57
2022/03/01 04:05:36;;;;;;;6.13;5.45;;;-7.70;99.90;;;;;;5086376;28;21025;-57
2022/03/01 04:08:16;;;;;;;6.43;5.75;;;-7.70;99.90;;;;;;5147707;27;20555;-57
2022/03/01 04:10:57;;;;;;;6.88;6.00;;;-7.60;99.90;;;;;;5147507;27;20677;-57
2022/03/01 04:13:36;;;;;;;5.72;5.13;;;-7.70;99.90;;;;;;5085934;27;20569;-58
2022/03/01 04:16:15;;;;;;;8.93;5.80;;;-7.80;99.90;;;;;;5106110;27;20916;-57
2022/03/01 04:18:56;;;;;;;6.00;5.50;;;-7.90;99.90;;;;;;5085646;28;21219;-57
2022/03/01 04:21:36;;;;;;;5.75;5.25;;;-7.80;99.90;;;;;;5126576;27;21075;-57
2022/03/01 04:24:15;;;;;;;5.30;4.82;;;-7.60;99.90;;;;;;5106138;27;20654;-57
2022/03/01 04:26:55;;;;;;;6.35;5.75;;;-7.40;99.90;;;;;;5106358;27;20858;-57
2022/03/01 04:29:35;;;;;;;6.93;6.22;;;-7.20;99.90;;;;;;5086043;28;20675;-57
2022/03/01 04:32:14;;;;;;;5.82;5.22;;;-7.00;99.90;;;;;;5147344;27;20564;-57
2022/03/01 04:34:55;;;;;;;6.55;5.53;;;-6.80;99.90;;;;;;5106342;27;21066;-57
2022/03/01 04:37:34;;;;;;;7.00;6.25;;;-6.70;99.90;;;;;;5085716;27;21161;-57
2022/03/01 04:40:18;;;;;;;6.60;5.90;;;-6.60;99.90;;;;;;5085622;28;20679;-57
2022/03/01 04:42:57;;;;;;;5.88;5.38;;;-6.60;99.90;;;;;;5085857;28;20986;-57
2022/03/01 04:45:37;;;;;;;7.20;6.15;;;-6.60;99.90;;;;;;5106103;27;20666;-57
2022/03/01 04:48:17;;;;;;;5.93;5.20;;;-6.50;99.90;;;;;;5105812;27;20701;-57
2022/03/01 04:50:57;;;;;;;6.53;5.93;;;-6.50;99.90;;;;;;5126600;27;20552;-57
2022/03/01 04:53:37;;;;;;;5.47;4.97;;;-6.50;99.90;;;;;;5085539;27;20547;-57
2022/03/01 04:56:16;;;;;;;7.15;6.38;;;-6.50;99.90;;;;;;5106360;27;20545;-57
2022/03/01 04:58:56;;;;;;;5.45;4.95;;;-6.60;99.90;;;;;;5086087;28;20675;-57
2022/03/01 05:01:36;;;;;;;6.75;6.10;;;-6.60;99.90;;;;;;5085762;28;20691;-57
2022/03/01 05:04:16;;;;;;;6.35;5.75;;;-6.70;99.90;;;;;;5106169;27;21204;-57
2022/03/01 05:06:56;;;;;;;6.28;5.13;;;-6.80;99.90;;;;;;5106451;27;20561;-57
2022/03/01 05:09:35;;;;;;;7.35;6.70;;;-6.90;99.90;;;;;;5086061;28;20543;-57
2022/03/01 05:12:17;;;;;;;6.22;5.72;;;-7.00;99.90;;;;;;5085783;27;20581;-57
2022/03/01 05:14:56;;;;;;;6.95;6.32;;;-7.00;99.90;;;;;;5147156;27;20538;-57
2022/03/01 05:17:37;;;;;;;7.93;6.22;;;-7.00;99.90;;;;;;5147129;27;20841;-57
2022/03/01 05:20:18;;;;;;;6.80;6.20;;;-6.90;99.90;;;;;;5126659;27;20548;-57
2022/03/01 05:22:58;;;;;;;7.75;6.60;;;-6.90;99.90;;;;;;5106305;27;20665;-57
2022/03/01 05:25:38;;;;;;;6.57;5.97;;;-6.80;99.90;;;;;;5086022;28;20672;-57
2022/03/01 05:28:17;;;;;;;7.25;6.55;;;-6.70;99.90;;;;;;5085607;27;20543;-57
2022/03/01 05:30:57;;;;;;;7.00;6.30;;;-6.60;99.90;;;;;;5106619;27;20545;-57
2022/03/01 05:33:37;;;;;;;9.32;6.75;;;-6.70;99.90;;;;;;5086200;28;20699;-58
2022/03/01 05:36:17;;;;;;;6.88;6.07;;;-6.80;99.90;;;;;;5106343;27;21210;-57
2022/03/01 05:38:57;;;;;;;6.03;5.53;;;-6.80;99.90;;;;;;5126607;27;20547;-57
2022/03/01 05:41:37;;;;;;;7.78;7.05;;;-6.80;99.90;;;;;;5085823;27;20558;-57
2022/03/01 05:44:20;;;;;;;6.18;5.68;;;-6.80;99.90;;;;;;5085715;28;21185;-58
2022/03/01 05:47:00;;;;;;;6.82;6.13;;;-6.80;99.90;;;;;;5085711;28;20695;-57
2022/03/01 05:49:40;;;;;;;7.18;6.47;;;-6.90;99.90;;;;;;5105781;27;20677;-57
2022/03/01 05:52:19;;;;;;;6.35;5.75;;;-7.00;99.90;;;;;;5085759;27;20547;-57
2022/03/01 05:54:59;;;;;;;7.53;6.82;;;-7.20;99.90;;;;;;5085615;28;20668;-57
2022/03/01 05:57:39;;;;;;;6.78;6.15;;;-7.40;99.90;;;;;;5085616;27;20683;-57
2022/03/01 06:00:20;;;;;;;6.13;5.63;;;-7.50;99.90;;;;;;5085936;27;20535;-57
2022/03/01 06:03:00;;;;;;;6.88;6.20;;;-7.50;99.90;;;;;;5106738;27;20537;-57
2022/03/01 06:05:40;;;;;;;7.65;6.95;;;-7.60;99.90;;;;;;5105519;27;20665;-57
2022/03/01 06:08:19;;;;;;;7.90;7.10;;;-7.50;99.90;;;;;;5105982;27;20689;-57
2022/03/01 06:10:59;;;;;;;7.50;6.70;;;-7.40;99.90;;;;;;5106168;27;20959;-57
2022/03/01 06:13:39;;;;;;;7.55;6.85;;;-7.20;99.90;;;;;;5106261;27;21039;-57
2022/03/01 06:16:19;;;;;;;7.90;7.20;;;-7.10;99.90;;;;;;5085061;28;20668;-57
2022/03/01 06:18:59;;;;;;;7.07;6.47;;;-7.00;99.90;;;;;;5126229;27;20588;-57
2022/03/01 06:21:39;;;;;;;7.35;6.75;;;-6.90;99.90;;;;;;5134865;27;20675;-57
2022/03/01 06:24:19;;;;;;;7.15;6.45;;;-6.80;99.90;;;;;;5144579;27;20676;-57
2022/03/01 06:26:59;;;;;;;8.60;7.72;;;-6.70;99.90;;;;;;5100566;27;21049;-57
2022/03/01 06:29:40;;;;;;;7.35;6.65;;;-6.50;99.90;;;;;;5147155;27;20527;-57
2022/03/01 06:32:20;;;;;;;7.55;6.95;;;-6.30;99.90;;;;;;5140900;27;20564;-57
2022/03/01 06:34:59;;;;;;;7.50;6.53;;;-6.20;99.90;;;;;;5103058;27;20689;-57
2022/03/01 06:37:39;;;;;;;6.97;6.28;;;-6.10;99.90;;;;;;5115014;27;20736;-57
2022/03/01 06:40:19;;;;;;;7.00;6.40;;;-6.00;99.90;;;;;;5105188;27;20673;-57
2022/03/01 06:42:59;;;;;;;7.75;6.68;;;-5.90;99.90;;;;;;5085378;27;20563;-57
2022/03/01 06:45:39;;;;;;;7.20;6.53;;;-5.70;99.90;;;;;;5135582;27;20542;-57
2022/03/01 06:48:18;;;;;;;7.40;6.60;;;-5.70;99.90;;;;;;5068260;27;20587;-57
2022/03/01 06:50:58;;;;;;;8.00;7.30;;;-5.50;99.90;;;;;;5105025;27;20542;-57
2022/03/01 06:53:38;;;;;;;10.25;7.45;;;-5.30;99.90;;;;;;5085289;28;20755;-57
2022/03/01 06:56:18;;;;;;;8.20;7.15;;;-5.20;99.90;;;;;;5106066;27;20658;-57
2022/03/01 06:58:58;;;;;;;16.58;14.75;;;-5.00;99.90;;;;;;5085176;27;20548;-57
2022/03/01 07:01:38;;;;;;;10.80;9.70;;;-5.00;99.90;;;;;;5147053;27;20569;-57
2022/03/01 07:04:18;;;;;;;11.93;9.57;;;-4.90;99.90;;;;;;5121013;27;20544;-57
2022/03/01 07:06:57;;;;;;;20.13;14.80;;;-4.80;99.90;;;;;;5144901;27;20557;-57
2022/03/01 07:09:37;;;;;;;12.98;10.93;;;-4.50;99.90;;;;;;5132628;27;20679;-57
2022/03/01 07:12:17;;;;;;;10.98;8.88;;;-4.40;99.90;;;;;;5126224;27;20555;-58
2022/03/01 07:14:57;;;;;;;11.30;9.80;;;-4.30;99.90;;;;;;5085526;27;20543;-57
2022/03/01 07:17:37;;;;;;;8.05;7.30;;;-4.20;99.90;;;;;;5085487;28;21213;-57
2022/03/01 07:20:16;;;;;;;7.20;6.60;;;-4.10;99.90;;;;;;5084612;28;20656;-57
2022/03/01 07:22:56;;;;;;;8.40;7.70;;;-3.90;99.90;;;;;;5124180;27;20548;-57
2022/03/01 07:25:36;;;;;;;6.88;6.28;;;-3.70;99.90;;;;;;5085751;27;20900;-57
2022/03/01 07:28:16;;;;;;;7.47;6.38;;;-3.60;99.90;;;;;;5105746;27;20561;-57
2022/03/01 07:30:56;;;;;;;9.90;8.02;;;-3.50;99.90;;;;;;5143806;27;20542;-57
2022/03/01 07:33:37;;;;;;;8.35;7.47;;;-3.40;99.90;;;;;;5085006;27;21076;-57
2022/03/01 07:36:17;;;;;;;8.88;7.95;;;-3.30;99.90;;;;;;5121069;27;20549;-57
2022/03/01 07:38:57;;;;;;;7.70;7.07;;;-3.20;99.90;;;;;;5105062;27;21037;-57
2022/03/01 07:41:37;;;;;;;11.80;10.80;;;-3.20;99.90;;;;;;5085148;27;20920;-57
2022/03/01 07:44:17;;;;;;;8.43;7.75;;;-3.10;99.90;;;;;;5085333;28;20551;-57
2022/03/01 07:46:56;;;;;;;9.93;9.02;;;-3.00;99.90;;;;;;5142673;27;20690;-57
2022/03/01 07:49:36;;;;;;;7.43;6.78;;;-2.90;99.90;;;;;;5079486;27;20571;-57
2022/03/01 07:52:16;;;;;;;7.93;6.68;;;-2.80;99.90;;;;;;5149955;27;21063;-57
2022/03/01 07:54:56;;;;;;;7.40;6.65;;;-2.70;99.90;;;;;;5083797;28;20597;-57
2022/03/01 07:57:36;;;;;;;8.00;6.65;;;-2.60;99.90;;;;;;5085250;28;20672;-57
2022/03/01 08:00:16;;;;;;;7.40;6.70;;;-2.50;99.90;;;;;;5146828;27;20654;-57
2022/03/01 08:02:55;;;;;;;7.10;6.32;;;-2.40;99.90;;;;;;5084942;27;20527;-57
2022/03/01 08:05:35;;;;;;;8.65;7.95;;;-2.30;99.90;;;;;;5085142;27;20742;-57
2022/03/01 08:08:15;;;;;;;6.75;6.15;;;-2.20;99.90;;;;;;5126477;27;21024;-57
2022/03/01 08:10:55;;;;;;;7.20;6.50;;;-2.20;99.90;;;;;;5106383;27;20666;-57
2022/03/01 08:13:36;;;;;;;7.78;5.97;;;-2.00;99.90;;;;;;5106423;27;20530;-56
2022/03/01 08:16:16;;;;;;;6.70;6.10;;;-2.00;99.90;;;;;;5147165;27;21207;-57
2022/03/01 08:18:56;;;;;;;6.40;5.90;;;-1.90;99.90;;;;;;5085060;28;20543;-57
2022/03/01 08:21:36;;;;;;;6.00;5.50;;;-1.80;99.90;;;;;;5085089;27;20679;-57
2022/03/01 08:24:15;;;;;;;8.63;7.45;;;-1.70;99.90;;;;;;5126524;27;20656;-57
2022/03/01 08:26:55;;;;;;;8.35;7.60;;;-1.60;99.90;;;;;;5085846;28;21146;-57
2022/03/01 08:29:36;;;;;;;6.45;5.93;;;-1.50;99.90;;;;;;5126204;27;21200;-56
2022/03/01 08:32:15;;;;;;;6.25;5.25;;;-1.40;99.90;;;;;;5084091;28;20547;-57
2022/03/01 08:34:55;;;;;;;6.50;5.85;;;-1.40;99.90;;;;;;5086060;28;20660;-56
2022/03/01 08:37:35;;;;;;;5.68;5.18;;;-1.30;99.90;;;;;;5147310;27;20657;-57
2022/03/01 08:40:18;;;;;;;5.95;5.35;;;-1.20;99.90;;;;;;5086054;27;20557;-57
2022/03/01 08:42:57;;;;;;;8.90;6.53;;;-1.10;99.90;;;;;;5106448;27;20530;-56
2022/03/01 08:45:38;;;;;;;6.85;6.15;;;-1.00;99.90;;;;;;5085906;28;21019;-57
2022/03/01 08:48:17;;;;;;;6.75;6.00;;;-0.90;99.90;;;;;;5163882;27;20545;-57
2022/03/01 08:50:57;;;;;;;7.32;5.85;;;-0.90;99.90;;;;;;5085861;28;20660;-56
2022/03/01 08:53:37;;;;;;;5.55;5.05;;;-0.80;99.90;;;;;;5105613;27;20542;-57
2022/03/01 08:56:17;;;;;;;6.22;5.63;;;-0.70;99.90;;;;;;5064980;27;20967;-57
2022/03/01 08:58:56;;;;;;;6.35;5.65;;;-0.60;99.90;;;;;;5105093;27;20690;-57
2022/03/01 09:01:37;;;;;;;7.05;6.38;;;-0.60;99.90;;;;;;5085300;28;21233;-57
2022/03/01 09:04:16;;;;;;;5.90;5.25;;;-0.40;99.90;;;;;;5125095;27;20548;-57
2022/03/01 09:06:56;;;;;;;6.57;5.93;;;-0.30;99.90;;;;;;5083193;27;20544;-56
2022/03/01 09:09:36;;;;;;;5.47;4.93;;;-0.20;99.90;;;;;;5126615;27;20536;-56
2022/03/01 09:12:15;;;;;;;5.60;5.15;;;-0.10;99.90;;;;;;5085457;28;21076;-56
2022/03/01 09:14:55;;;;;;;6.03;5.45;;;-0.10;99.90;;;;;;5105761;27;21021;-57
2022/03/01 09:17:35;;;;;;;6.28;5.03;;;0.00;99.90;;;;;;5125860;27;20552;-57
2022/03/01 09:20:16;;;;;;;5.93;5.22;;;0.10;99.90;;;;;;5105899;27;20530;-57
2022/03/01 09:22:55;;;;;;;4.70;4.30;;;0.10;99.90;;;;;;5085301;28;20679;-57
2022/03/01 09:25:35;;;;;;;5.22;4.72;;;0.20;99.90;;;;;;5085571;28;20667;-56
2022/03/01 09:28:14;;;;;;;5.72;5.22;;;0.20;99.90;;;;;;5146662;27;21210;-57
2022/03/01 09:30:54;;;;;;;6.55;5.38;;;0.40;99.90;;;;;;5105412;27;20545;-55
2022/03/01 09:33:34;;;;;;;6.20;5.68;;;0.50;99.90;;;;;;5105560;27;20650;-57
2022/03/01 09:36:15;;;;;;;6.22;5.55;;;0.70;99.90;;;;;;5152453;27;20671;-57
2022/03/01 09:38:55;;;;;;;6.20;5.60;;;0.80;99.90;;;;;;5126682;27;20540;-56
2022/03/01 09:41:37;;;;;;;19.67;5.32;;;0.90;99.90;;;;;;5085587;27;20545;-56
2022/03/01 09:44:18;;;;;;;6.22;5.60;;;1.00;99.90;;;;;;5085638;27;20557;-57
2022/03/01 09:46:58;;;;;;;6.53;5.88;;;1.10;99.90;;;;;;5105942;27;20662;-56
2022/03/01 09:49:38;;;;;;;6.97;6.38;;;1.20;99.90;;;;;;5085387;27;20664;-56
2022/03/01 09:52:18;;;;;;;6.10;5.50;;;1.30;99.90;;;;;;5083868;27;21046;-57
2022/03/01 09:54:58;;;;;;;5.85;5.25;;;1.40;99.90;;;;;;5143387;27;21201;-56
2022/03/01 09:57:38;;;;;;;5.75;5.18;;;1.50;99.90;;;;;;5084976;28;20679;-57
2022/03/01 10:00:17;;;;;;;6.80;5.45;;;1.60;99.90;;;;;;5084152;27;20551;-59
2022/03/01 10:02:59;;;;;;;5.38;4.88;;;1.70;99.90;;;;;;5070138;27;20589;-58
2022/03/01 10:05:41;;;;;;;5.88;5.38;;;1.70;99.90;;;;;;5083528;28;20660;-58
2022/03/01 10:08:21;;;;;;;4.53;4.18;;;1.80;99.90;;;;;;5093709;22;21080;-58
2022/03/01 10:11:02;;;;;;;4.85;4.40;;;1.90;99.90;;;;;;5103341;27;20567;-60
2022/03/01 10:13:43;;;;;;;5.53;5.03;;;2.00;99.90;;;;;;5102781;27;20562;-60
2022/03/01 10:16:22;;;;;;;5.15;4.75;;;2.10;99.90;;;;;;5119373;27;20711;-60
2022/03/01 10:19:02;;;;;;;5.93;5.43;;;2.20;99.90;;;;;;5133441;27;20755;-60
2022/03/01 10:21:43;;;;;;;5.65;5.15;;;2.20;99.90;;;;;;5083148;28;20990;-60
2022/03/01 10:24:22;;;;;;;5.03;4.53;;;2.30;99.90;;;;;;5102857;27;20573;-60
2022/03/01 10:27:05;;;;;;;5.88;4.72;;;2.30;99.90;;;;;;5083824;28;21232;-60
2022/03/01 10:29:47;;;;;;;5.03;4.53;;;2.40;99.90;;;;;;5103112;27;20558;-60
2022/03/01 10:32:26;;;;;;;5.20;4.70;;;2.50;99.90;;;;;;5082565;28;20539;-59
2022/03/01 10:35:08;;;;;;;5.43;4.93;;;2.60;99.90;;;;;;5076727;28;20593;-59
2022/03/01 10:37:51;;;;;;;5.30;4.80;;;2.70;99.90;;;;;;5060371;28;21175;-60
2022/03/01 10:40:32;;;;;;;5.50;4.95;;;2.80;99.90;;;;;;5185061;27;20591;-59
2022/03/01 10:43:14;;;;;;;6.53;4.65;;;2.90;99.90;;;;;;5104876;27;20720;-60
2022/03/01 10:45:54;;;;;;;4.10;3.70;;;3.00;99.90;;;;;;5124811;27;20548;-60
2022/03/01 10:48:35;;;;;;;4.70;4.25;;;3.10;99.90;;;;;;5147235;27;20555;-59
2022/03/01 10:51:19;;;;;;;5.07;4.57;;;3.10;99.90;;;;;;5083974;27;21096;-59
2022/03/01 10:54:00;;;;;;;7.53;4.10;;;3.20;99.90;;;;;;5070772;27;20989;-59
2022/03/01 10:56:39;;;;;;;4.88;4.32;;;3.30;99.90;;;;;;5097382;27;20557;-59
2022/03/01 10:59:19;;;;;;;4.63;4.28;;;3.40;99.90;;;;;;5123641;27;20978;-59
2022/03/01 11:01:59;;;;;;;4.35;4.05;;;3.50;99.90;;;;;;5083628;27;20544;-60
2022/03/01 11:04:39;;;;;;;6.00;5.50;;;3.60;99.90;;;;;;5084317;27;21165;-60
2022/03/01 11:07:20;;;;;;;4.07;3.78;;;3.70;99.90;;;;;;5082143;27;20570;-60
2022/03/01 11:10:02;;;;;;;4.20;3.80;;;3.80;99.90;;;;;;5118204;27;20557;-60
2022/03/01 11:12:42;;;;;;;4.93;3.80;;;3.80;99.20;;;;;;5103982;27;20573;-59
2022/03/01 11:15:31;;;;;;;3.88;3.58;;;3.90;98.00;;;;;;5082396;27;20582;-60
2022/03/01 11:18:23;;;;;;;4.15;3.85;;;4.00;97.60;;;;;;5145498;27;20550;-59
2022/03/01 11:21:05;;;;;;;6.40;3.70;;;4.10;96.10;;;;;;5083861;27;20551;-59
2022/03/01 11:23:45;;;;;;;4.20;3.75;;;4.20;94.60;;;;;;5084073;28;21028;-60
2022/03/01 11:26:34;;;;;;;4.88;3.53;;;4.20;95.60;;;;;;5084836;28;20557;-59
2022/03/01 11:29:16;;;;;;;3.78;3.47;;;4.20;96.20;;;;;;5145472;27;20555;-60
2022/03/01 11:32:00;;;;;;;4.07;3.78;;;4.30;93.00;;;;;;5142685;27;20570;-59
2022/03/01 11:34:40;;;;;;;4.03;3.63;;;4.40;93.30;;;;;;5103827;27;20666;-59
2022/03/01 11:37:23;;;;;;;5.82;3.53;;;4.50;91.00;;;;;;5082967;28;20676;-60
2022/03/01 11:40:04;;;;;;;3.97;3.67;;;4.50;90.30;;;;;;5084699;28;20660;-59
2022/03/01 11:42:48;;;;;;;3.90;3.60;;;4.50;90.10;;;;;;5082155;28;20664;-60
2022/03/01 11:45:33;;;;;;;5.22;3.40;;;4.50;89.10;;;;;;5078176;27;21097;-60
2022/03/01 11:48:16;;;;;;;4.50;4.10;;;4.50;85.00;;;;;;5102436;27;20581;-60
2022/03/01 11:51:04;;;;;;;5.22;4.00;;;4.50;85.40;;;;;;5083467;28;20676;-60
2022/03/01 11:53:49;;;;;;;4.85;3.60;;;4.50;86.80;;;;;;5103975;27;20576;-60
2022/03/01 11:56:29;;;;;;;3.80;3.50;;;4.50;87.00;;;;;;5080285;27;20691;-60
2022/03/01 11:59:11;;;;;;;3.95;3.58;;;4.60;80.90;;;;;;5077628;28;20619;-60
2022/03/01 12:01:52;;;;;;;8.10;3.42;;;4.60;81.80;;;;;;5177122;27;20562;-59
2022/03/01 12:04:32;;;;;;;3.42;3.13;;;4.60;83.20;;;;;;5103947;27;20576;-59
2022/03/01 12:07:11;;;;;;;6.28;3.70;;;4.60;75.30;;;;;;5062328;27;20553;-60
2022/03/01 12:10:00;;;;;;;3.50;3.20;;;4.70;76.70;;;;;;5117091;27;21093;-60
2022/03/01 12:12:47;;;;;;;4.20;3.25;;;4.70;75.00;;;;;;5126753;27;20543;-60
2022/03/01 12:15:32;;;;;;;5.38;3.50;;;4.70;72.40;;;;;;5139200;27;21205;-60
2022/03/01 12:18:16;;;;;;;4.20;3.80;;;4.70;77.60;;;;;;5082721;28;20563;-60
2022/03/01 12:21:02;;;;;;;3.83;3.28;;;4.80;71.50;;;;;;5083710;28;20671;-60
2022/03/01 12:23:45;;;;;;;3.10;2.90;;;4.70;69.60;;;;;;5083577;28;20558;-60
2022/03/01 12:26:28;;;;;;;3.13;2.92;;;4.70;71.30;;;;;;5121766;27;20564;-60
2022/03/01 12:29:08;;;;;;;3.28;3.03;;;4.70;68.00;;;;;;5088567;27;21053;-60
2022/03/01 12:31:55;;;;;;;3.70;3.17;;;4.70;67.00;;;;;;5138161;27;20669;-60
2022/03/01 12:34:36;;;;;;;3.28;3.03;;;4.80;68.50;;;;;;5084017;28;20656;-60
2022/03/01 12:37:18;;;;;;;3.58;3.20;;;4.90;69.70;;;;;;5150060;27;20903;-60
2022/03/01 12:39:58;;;;;;;3.83;3.53;;;5.00;67.90;;;;;;5084480;27;20535;-60
2022/03/01 12:42:38;;;;;;;5.20;2.85;;;5.00;68.60;;;;;;5102385;27;20681;-59
2022/03/01 12:45:17;;;;;;;3.85;3.30;;;5.00;68.10;;;;;;5104127;27;20572;-59
2022/03/01 12:47:57;;;;;;;4.53;3.38;;;5.10;65.40;;;;;;5075935;27;20567;-59
2022/03/01 12:50:44;;;;;;;3.55;3.30;;;5.10;70.00;;;;;;5068936;28;20694;-60
2022/03/01 12:53:25;;;;;;;3.38;3.08;;;5.10;67.00;;;;;;5097498;27;20598;-60
2022/03/01 12:56:05;;;;;;;4.03;3.72;;;5.20;64.80;;;;;;5118526;27;21092;-60
2022/03/01 12:58:44;;;;;;;3.53;3.22;;;5.10;64.10;;;;;;5077444;27;20562;-59
2022/03/01 13:01:24;;;;;;;4.43;3.45;;;5.20;74.80;;;;;;5083500;28;20719;-59
2022/03/01 13:04:06;;;;;;;6.78;3.55;;;5.30;79.10;;;;;;5082174;27;20543;-59
2022/03/01 13:06:46;;;;;;;3.60;3.30;;;5.40;71.20;;;;;;5081036;27;20695;-59
2022/03/01 13:09:27;;;;;;;5.70;3.70;;;5.40;63.10;;;;;;5132790;22;20741;-58
2022/03/01 13:12:08;;;;;;;4.60;3.70;;;5.40;65.10;;;;;;5135953;27;20688;-58
2022/03/01 13:14:53;;;;;;;3.28;2.97;;;5.40;70.30;;;;;;5123305;27;21155;-59
2022/03/01 13:17:33;;;;;;;3.80;3.20;;;5.50;62.60;;;;;;5080366;27;20590;-58
2022/03/01 13:20:18;;;;;;;3.78;3.40;;;5.40;64.30;;;;;;5068430;27;20622;-57
2022/03/01 13:23:12;;;;;;;3.75;3.45;;;5.50;60.70;;;;;;5026419;27;2794357;-59
2022/03/01 13:25:52;;;;;;;3.05;2.85;;;5.40;63.10;;;;;;5022867;27;2570225;-59
2022/03/01 13:28:37;;;;;;;3.55;3.30;;;5.40;65.40;;;;;;5035539;27;1870451;-59
2022/03/01 13:31:24;;;;;;;3.92;3.53;;;5.50;65.20;;;;;;5080359;28;20683;-59
2022/03/01 13:34:04;;;;;;;4.30;3.90;;;5.60;60.90;;;;;;5097660;27;20673;-58
2022/03/01 13:36:43;;;;;;;3.50;3.17;;;5.60;63.40;;;;;;5140630;27;20677;-59
2022/03/01 13:39:23;;;;;;;4.60;3.53;;;5.60;59.50;;;;;;5082912;28;20711;-59
2022/03/01 13:42:04;;;;;;;4.10;3.70;;;5.50;58.50;;;;;;5082697;27;20484;-58
2022/03/01 13:44:46;;;;;;;5.32;3.55;;;5.50;59.60;;;;;;5083951;27;20601;-58
2022/03/01 13:47:29;;;;;;;4.07;3.78;;;5.50;56.90;;;;;;5084216;27;20551;-58
2022/03/01 13:50:13;;;;;;;3.55;3.22;;;5.40;56.30;;;;;;5104786;27;21220;-59
2022/03/01 13:52:56;;;;;;;3.92;3.13;;;5.30;56.50;;;;;;5145916;27;20558;-60
2022/03/01 13:55:37;;;;;;;3.35;3.03;;;5.30;55.20;;;;;;5104431;27;20603;-60
2022/03/01 13:58:20;;;;;;;3.38;3.08;;;5.30;55.80;;;;;;5145620;27;20677;-58